sensor_id;sensor_type;location;lat;lon;timestamp;pressure;altitude;pressure_sealevel;temperature;humidity
62634;BME280;48704;50.534;6.442;2023-04-25T00:00:10;94892.00;;;3.94;100.00
62634;BME280;48704;50.534;6.442;2023-04-25T00:02:35;94891.69;;;3.92;100.00
62634;BME280;48704;50.534;6.442;2023-04-25T00:05:02;94896.31;;;3.95;100.00
62634;BME280;48704;50.534;6.442;2023-04-25T00:07:28;94886.44;;;3.85;100.00
62634;BME280;48704;50.534;6.442;2023-04-25T00:09:53;94889.25;;;3.94;100.00
62634;BME280;48704;50.534;6.442;2023-04-25T00:12:19;94888.56;;;4.12;100.00
62634;BME280;48704;50.534;6.442;2023-04-25T00:14:44;94889.00;;;4.01;100.00
62634;BME280;48704;50.534;6.442;2023-04-25T00:17:10;94892.84;;;3.82;100.00
62634;BME280;48704;50.534;6.442;2023-04-25T00:19:36;94887.28;;;3.73;100.00
62634;BME280;48704;50.534;6.442;2023-04-25T00:22:02;94896.31;;;3.74;100.00
62634;BME280;48704;50.534;6.442;2023-04-25T00:24:28;94887.91;;;3.77;100.00
62634;BME280;48704;50.534;6.442;2023-04-25T00:26:54;94885.16;;;3.77;100.00
62634;BME280;48704;50.534;6.442;2023-04-25T00:29:19;94887.13;;;3.98;100.00
62634;BME280;48704;50.534;6.442;2023-04-25T00:31:44;94883.22;;;3.87;100.00
62634;BME280;48704;50.534;6.442;2023-04-25T00:34:09;94888.28;;;4.19;100.00
62634;BME280;48704;50.534;6.442;2023-04-25T00:36:35;94885.06;;;4.21;100.00
62634;BME280;48704;50.534;6.442;2023-04-25T00:39:01;94890.28;;;4.19;100.00
62634;BME280;48704;50.534;6.442;2023-04-25T00:41:26;94885.06;;;4.21;100.00
62634;BME280;48704;50.534;6.442;2023-04-25T00:43:53;94888.28;;;4.19;100.00
62634;BME280;48704;50.534;6.442;2023-04-25T00:46:19;94879.56;;;4.21;100.00
62634;BME280;48704;50.534;6.442;2023-04-25T00:48:44;94877.97;;;4.01;100.00
62634;BME280;48704;50.534;6.442;2023-04-25T00:51:13;94876.19;;;3.86;100.00
62634;BME280;48704;50.534;6.442;2023-04-25T00:53:40;94869.97;;;3.94;100.00
62634;BME280;48704;50.534;6.442;2023-04-25T00:56:06;94867.69;;;3.71;100.00
62634;BME280;48704;50.534;6.442;2023-04-25T00:58:31;94868.63;;;3.77;100.00
62634;BME280;48704;50.534;6.442;2023-04-25T01:00:57;94867.22;;;3.73;100.00
62634;BME280;48704;50.534;6.442;2023-04-25T01:03:22;94871.69;;;3.79;100.00
62634;BME280;48704;50.534;6.442;2023-04-25T01:05:48;94870.16;;;3.78;100.00
62634;BME280;48704;50.534;6.442;2023-04-25T01:08:13;94867.09;;;3.76;100.00
62634;BME280;48704;50.534;6.442;2023-04-25T01:10:39;94865.88;;;3.77;100.00
62634;BME280;48704;50.534;6.442;2023-04-25T01:13:04;94861.72;;;3.73;100.00
62634;BME280;48704;50.534;6.442;2023-04-25T01:15:30;94866.09;;;3.61;100.00
62634;BME280;48704;50.534;6.442;2023-04-25T01:17:56;94871.47;;;3.43;100.00
62634;BME280;48704;50.534;6.442;2023-04-25T01:20:22;94870.19;;;3.34;100.00
62634;BME280;48704;50.534;6.442;2023-04-25T01:22:52;94870.25;;;3.44;100.00
62634;BME280;48704;50.534;6.442;2023-04-25T01:25:18;94870.25;;;3.44;100.00
62634;BME280;48704;50.534;6.442;2023-04-25T01:27:43;94877.38;;;3.54;100.00
62634;BME280;48704;50.534;6.442;2023-04-25T01:30:09;94877.75;;;3.65;100.00
62634;BME280;48704;50.534;6.442;2023-04-25T01:32:35;94877.38;;;3.54;100.00
62634;BME280;48704;50.534;6.442;2023-04-25T01:35:05;94881.59;;;3.67;100.00
62634;BME280;48704;50.534;6.442;2023-04-25T01:40:03;94891.66;;;3.61;100.00
62634;BME280;48704;50.534;6.442;2023-04-25T01:42:31;94885.25;;;3.43;100.00
62634;BME280;48704;50.534;6.442;2023-04-25T01:44:56;94882.00;;;3.57;100.00
62634;BME280;48704;50.534;6.442;2023-04-25T01:47:21;94882.75;;;3.35;100.00
62634;BME280;48704;50.534;6.442;2023-04-25T01:49:47;94888.00;;;3.43;100.00
62634;BME280;48704;50.534;6.442;2023-04-25T01:52:12;94885.06;;;3.15;100.00
62634;BME280;48704;50.534;6.442;2023-04-25T01:54:37;94881.03;;;3.29;100.00
62634;BME280;48704;50.534;6.442;2023-04-25T01:57:03;94883.91;;;3.47;100.00
62634;BME280;48704;50.534;6.442;2023-04-25T01:59:28;94896.22;;;3.33;100.00
62634;BME280;48704;50.534;6.442;2023-04-25T02:01:53;94890.75;;;3.43;100.00
62634;BME280;48704;50.534;6.442;2023-04-25T02:04:19;94894.69;;;3.32;100.00
62634;BME280;48704;50.534;6.442;2023-04-25T02:06:44;94894.16;;;3.25;100.00
62634;BME280;48704;50.534;6.442;2023-04-25T02:09:09;94890.72;;;2.99;100.00
62634;BME280;48704;50.534;6.442;2023-04-25T02:11:35;94891.88;;;3.11;100.00
62634;BME280;48704;50.534;6.442;2023-04-25T02:14:00;94891.53;;;3.21;100.00
62634;BME280;48704;50.534;6.442;2023-04-25T02:16:25;94884.16;;;3.18;100.00
62634;BME280;48704;50.534;6.442;2023-04-25T02:18:51;94894.38;;;2.96;100.00
62634;BME280;48704;50.534;6.442;2023-04-25T02:21:17;94881.22;;;3.13;100.00
62634;BME280;48704;50.534;6.442;2023-04-25T02:23:43;94888.47;;;2.85;100.00
62634;BME280;48704;50.534;6.442;2023-04-25T02:26:10;94883.63;;;3.11;100.00
62634;BME280;48704;50.534;6.442;2023-04-25T02:28:38;94891.44;;;3.12;100.00
62634;BME280;48704;50.534;6.442;2023-04-25T02:31:03;94884.91;;;2.97;100.00
62634;BME280;48704;50.534;6.442;2023-04-25T02:33:28;94891.31;;;2.94;100.00
62634;BME280;48704;50.534;6.442;2023-04-25T02:35:54;94886.16;;;2.83;100.00
62634;BME280;48704;50.534;6.442;2023-04-25T02:38:19;94885.38;;;2.83;100.00
62634;BME280;48704;50.534;6.442;2023-04-25T02:40:44;94886.28;;;2.80;100.00
62634;BME280;48704;50.534;6.442;2023-04-25T02:43:10;94889.91;;;2.77;100.00
62634;BME280;48704;50.534;6.442;2023-04-25T02:45:35;94891.84;;;2.54;100.00
62634;BME280;48704;50.534;6.442;2023-04-25T02:48:01;94892.22;;;2.65;100.00
62634;BME280;48704;50.534;6.442;2023-04-25T02:50:27;94889.16;;;2.63;100.00
62634;BME280;48704;50.534;6.442;2023-04-25T02:52:52;94888.00;;;2.52;100.00
62634;BME280;48704;50.534;6.442;2023-04-25T02:55:17;94889.41;;;2.31;100.00
62634;BME280;48704;50.534;6.442;2023-04-25T02:57:43;94890.97;;;2.32;100.00
62634;BME280;48704;50.534;6.442;2023-04-25T03:00:08;94888.94;;;2.71;100.00
62634;BME280;48704;50.534;6.442;2023-04-25T03:02:34;94892.66;;;2.77;100.00
62634;BME280;48704;50.534;6.442;2023-04-25T03:04:59;94904.09;;;2.88;100.00
62634;BME280;48704;50.534;6.442;2023-04-25T03:07:24;94898.38;;;2.69;100.00
62634;BME280;48704;50.534;6.442;2023-04-25T03:09:50;94904.75;;;2.79;100.00
62634;BME280;48704;50.534;6.442;2023-04-25T03:12:15;94904.88;;;3.10;100.00
62634;BME280;48704;50.534;6.442;2023-04-25T03:14:41;94903.34;;;3.09;100.00
62634;BME280;48704;50.534;6.442;2023-04-25T03:17:06;94905.13;;;3.03;100.00
62634;BME280;48704;50.534;6.442;2023-04-25T03:19:31;94911.59;;;3.09;100.00
62634;BME280;48704;50.534;6.442;2023-04-25T03:21:56;94914.59;;;3.02;100.00
62634;BME280;48704;50.534;6.442;2023-04-25T03:24:22;94919.72;;;2.91;100.00
62634;BME280;48704;50.534;6.442;2023-04-25T03:26:47;94915.25;;;3.06;100.00
62634;BME280;48704;50.534;6.442;2023-04-25T03:29:12;94917.28;;;2.93;100.00
62634;BME280;48704;50.534;6.442;2023-04-25T03:31:37;94909.91;;;2.90;100.00
62634;BME280;48704;50.534;6.442;2023-04-25T03:34:03;94913.81;;;3.01;100.00
62634;BME280;48704;50.534;6.442;2023-04-25T03:36:28;94910.38;;;3.10;100.00
62634;BME280;48704;50.534;6.442;2023-04-25T03:38:53;94911.81;;;2.80;100.00
62634;BME280;48704;50.534;6.442;2023-04-25T03:41:18;94912.16;;;2.69;100.00
62634;BME280;48704;50.534;6.442;2023-04-25T03:43:44;94912.03;;;2.60;100.00
62634;BME280;48704;50.534;6.442;2023-04-25T03:46:09;94913.75;;;2.92;100.00
62634;BME280;48704;50.534;6.442;2023-04-25T03:48:34;94914.59;;;3.02;100.00
62634;BME280;48704;50.534;6.442;2023-04-25T03:51:00;94908.56;;;2.47;100.00
62634;BME280;48704;50.534;6.442;2023-04-25T03:53:25;94921.31;;;2.28;100.00
62634;BME280;48704;50.534;6.442;2023-04-25T03:55:51;94919.09;;;2.61;100.00
62634;BME280;48704;50.534;6.442;2023-04-25T03:58:16;94918.31;;;2.61;100.00
62634;BME280;48704;50.534;6.442;2023-04-25T04:00:42;94909.22;;;2.39;100.00
62634;BME280;48704;50.534;6.442;2023-04-25T04:03:07;94916.91;;;2.56;100.00
62634;BME280;48704;50.534;6.442;2023-04-25T04:05:32;94920.22;;;2.26;100.00
62634;BME280;48704;50.534;6.442;2023-04-25T04:07:57;94922.41;;;2.56;100.00
62634;BME280;48704;50.534;6.442;2023-04-25T04:10:23;94918.78;;;2.59;100.00
62634;BME280;48704;50.534;6.442;2023-04-25T04:12:48;94921.66;;;2.30;100.00
62634;BME280;48704;50.534;6.442;2023-04-25T04:15:13;94918.69;;;2.50;100.00
62634;BME280;48704;50.534;6.442;2023-04-25T04:17:39;94919.13;;;2.36;100.00
62634;BME280;48704;50.534;6.442;2023-04-25T04:20:05;94921.09;;;2.48;100.00
62634;BME280;48704;50.534;6.442;2023-04-25T04:22:31;94923.75;;;2.14;100.00
62634;BME280;48704;50.534;6.442;2023-04-25T04:24:56;94922.44;;;2.18;100.00
62634;BME280;48704;50.534;6.442;2023-04-25T04:27:22;94922.31;;;2.09;100.00
62634;BME280;48704;50.534;6.442;2023-04-25T04:29:47;94922.41;;;2.06;100.00
62634;BME280;48704;50.534;6.442;2023-04-25T04:32:14;94927.25;;;2.01;100.00
62634;BME280;48704;50.534;6.442;2023-04-25T04:34:39;94932.75;;;2.01;100.00
62634;BME280;48704;50.534;6.442;2023-04-25T04:37:06;94932.41;;;1.99;100.00
62634;BME280;48704;50.534;6.442;2023-04-25T04:39:32;94935.34;;;1.92;100.00
62634;BME280;48704;50.534;6.442;2023-04-25T04:41:58;94937.25;;;2.08;100.00
62634;BME280;48704;50.534;6.442;2023-04-25T04:44:23;94944.97;;;2.13;100.00
62634;BME280;48704;50.534;6.442;2023-04-25T04:46:48;94947.22;;;1.89;100.00
62634;BME280;48704;50.534;6.442;2023-04-25T04:49:13;94952.94;;;1.82;100.00
62634;BME280;48704;50.534;6.442;2023-04-25T04:51:39;94948.47;;;2.01;100.00
62634;BME280;48704;50.534;6.442;2023-04-25T04:54:05;94952.84;;;1.98;100.00
62634;BME280;48704;50.534;6.442;2023-04-25T04:56:31;94947.78;;;1.97;100.00
62634;BME280;48704;50.534;6.442;2023-04-25T04:58:58;94956.06;;;2.10;100.00
62634;BME280;48704;50.534;6.442;2023-04-25T05:01:23;94957.25;;;2.09;100.00
62634;BME280;48704;50.534;6.442;2023-04-25T05:03:49;94967.25;;;2.03;100.00
62634;BME280;48704;50.534;6.442;2023-04-25T05:06:15;94967.66;;;1.88;100.00
62634;BME280;48704;50.534;6.442;2023-04-25T05:08:41;94977.91;;;2.00;100.00
62634;BME280;48704;50.534;6.442;2023-04-25T05:11:06;94980.69;;;2.26;100.00
62634;BME280;48704;50.534;6.442;2023-04-25T05:13:31;94976.31;;;2.41;100.00
62634;BME280;48704;50.534;6.442;2023-04-25T05:15:56;94985.22;;;2.20;100.00
62634;BME280;48704;50.534;6.442;2023-04-25T05:18:22;94983.88;;;2.12;100.00
62634;BME280;48704;50.534;6.442;2023-04-25T05:20:47;94979.72;;;2.45;100.00
62634;BME280;48704;50.534;6.442;2023-04-25T05:23:12;94978.59;;;2.30;100.00
62634;BME280;48704;50.534;6.442;2023-04-25T05:25:37;94984.88;;;2.18;100.00
62634;BME280;48704;50.534;6.442;2023-04-25T05:28:03;94992.78;;;2.16;100.00
62634;BME280;48704;50.534;6.442;2023-04-25T05:30:28;94993.56;;;2.16;100.00
62634;BME280;48704;50.534;6.442;2023-04-25T05:32:53;94991.72;;;2.51;100.00
62634;BME280;48704;50.534;6.442;2023-04-25T05:35:19;94992.13;;;2.37;100.00
62634;BME280;48704;50.534;6.442;2023-04-25T05:37:44;94993.22;;;2.27;100.00
62634;BME280;48704;50.534;6.442;2023-04-25T05:40:10;94999.81;;;2.17;100.00
62634;BME280;48704;50.534;6.442;2023-04-25T05:42:35;95003.81;;;2.66;100.00
62634;BME280;48704;50.534;6.442;2023-04-25T05:45:00;95005.13;;;2.49;100.00
62634;BME280;48704;50.534;6.442;2023-04-25T05:47:26;95005.13;;;2.75;100.00
62634;BME280;48704;50.534;6.442;2023-04-25T05:49:51;95011.06;;;2.86;100.00
62634;BME280;48704;50.534;6.442;2023-04-25T05:52:18;95014.69;;;2.83;100.00
62634;BME280;48704;50.534;6.442;2023-04-25T05:54:43;95012.16;;;2.76;100.00
62634;BME280;48704;50.534;6.442;2023-04-25T05:57:08;95013.25;;;2.65;100.00
62634;BME280;48704;50.534;6.442;2023-04-25T05:59:33;95021.06;;;2.42;100.00
62634;BME280;48704;50.534;6.442;2023-04-25T06:01:59;95014.59;;;2.48;100.00
62634;BME280;48704;50.534;6.442;2023-04-25T06:04:25;95020.75;;;2.78;100.00
62634;BME280;48704;50.534;6.442;2023-04-25T06:06:51;95016.69;;;2.82;100.00
62634;BME280;48704;50.534;6.442;2023-04-25T06:09:16;95021.84;;;2.67;100.00
62634;BME280;48704;50.534;6.442;2023-04-25T06:11:41;95033.38;;;2.37;100.00
62634;BME280;48704;50.534;6.442;2023-04-25T06:14:06;95024.94;;;2.69;100.00
62634;BME280;48704;50.534;6.442;2023-04-25T06:16:32;95029.75;;;2.40;100.00
62634;BME280;48704;50.534;6.442;2023-04-25T06:18:57;95024.47;;;2.33;100.00
62634;BME280;48704;50.534;6.442;2023-04-25T06:21:23;95032.31;;;2.47;100.00
62634;BME280;48704;50.534;6.442;2023-04-25T06:23:48;95038.53;;;2.22;100.00
62634;BME280;48704;50.534;6.442;2023-04-25T06:26:14;95039.47;;;2.83;100.00
62634;BME280;48704;50.534;6.442;2023-04-25T06:28:39;95044.63;;;2.43;100.00
62634;BME280;48704;50.534;6.442;2023-04-25T06:31:04;95044.84;;;2.48;100.00
62634;BME280;48704;50.534;6.442;2023-04-25T06:33:30;95050.69;;;2.50;100.00
62634;BME280;48704;50.534;6.442;2023-04-25T06:35:58;95042.75;;;2.52;100.00
62634;BME280;48704;50.534;6.442;2023-04-25T06:38:23;95036.53;;;2.23;100.00
62634;BME280;48704;50.534;6.442;2023-04-25T06:40:49;95047.06;;;2.53;100.00
62634;BME280;48704;50.534;6.442;2023-04-25T06:43:14;95050.34;;;2.61;100.00
62634;BME280;48704;50.534;6.442;2023-04-25T06:45:39;95051.75;;;2.40;100.00
62634;BME280;48704;50.534;6.442;2023-04-25T06:48:05;95057.72;;;2.51;100.00
62634;BME280;48704;50.534;6.442;2023-04-25T06:50:30;95069.41;;;2.26;100.00
62634;BME280;48704;50.534;6.442;2023-04-25T06:52:55;95066.56;;;2.17;100.00
62634;BME280;48704;50.534;6.442;2023-04-25T06:55:21;95056.38;;;2.43;100.00
62634;BME280;48704;50.534;6.442;2023-04-25T06:57:46;95065.41;;;2.44;100.00
62634;BME280;48704;50.534;6.442;2023-04-25T07:00:12;95060.91;;;2.50;100.00
62634;BME280;48704;50.534;6.442;2023-04-25T07:02:37;95067.53;;;2.90;100.00
62634;BME280;48704;50.534;6.442;2023-04-25T07:05:03;95064.31;;;3.17;100.00
62634;BME280;48704;50.534;6.442;2023-04-25T07:07:30;95073.78;;;3.03;100.00
62634;BME280;48704;50.534;6.442;2023-04-25T07:09:55;95065.84;;;3.18;100.00
62634;BME280;48704;50.534;6.442;2023-04-25T07:12:21;95062.78;;;3.63;100.00
62634;BME280;48704;50.534;6.442;2023-04-25T07:14:46;95066.69;;;3.41;100.00
62634;BME280;48704;50.534;6.442;2023-04-25T07:17:11;95068.47;;;3.34;100.00
62634;BME280;48704;50.534;6.442;2023-04-25T07:19:36;95073.41;;;3.52;100.00
62634;BME280;48704;50.534;6.442;2023-04-25T07:22:03;95072.19;;;3.41;100.00
62634;BME280;48704;50.534;6.442;2023-04-25T07:24:29;95076.22;;;3.14;100.00
62634;BME280;48704;50.534;6.442;2023-04-25T07:26:54;95069.81;;;3.30;100.00
62634;BME280;48704;50.534;6.442;2023-04-25T07:29:19;95073.28;;;3.56;100.00
62634;BME280;48704;50.534;6.442;2023-04-25T07:31:45;95065.91;;;3.53;100.00
62634;BME280;48704;50.534;6.442;2023-04-25T07:34:10;95068.56;;;3.78;100.00
62634;BME280;48704;50.534;6.442;2023-04-25T07:36:35;95079.84;;;3.24;100.00
62634;BME280;48704;50.534;6.442;2023-04-25T07:39:00;95083.41;;;3.59;100.00
62634;BME280;48704;50.534;6.442;2023-04-25T07:41:25;95079.25;;;3.42;100.00
62634;BME280;48704;50.534;6.442;2023-04-25T07:43:51;95084.63;;;3.45;100.00
62634;BME280;48704;50.534;6.442;2023-04-25T07:46:16;95104.41;;;3.18;100.00
62634;BME280;48704;50.534;6.442;2023-04-25T07:48:41;95100.81;;;3.56;100.00
62634;BME280;48704;50.534;6.442;2023-04-25T07:51:07;95110.66;;;2.81;100.00
62634;BME280;48704;50.534;6.442;2023-04-25T07:53:32;95102.09;;;2.91;100.00
62634;BME280;48704;50.534;6.442;2023-04-25T07:55:59;95114.63;;;3.05;100.00
62634;BME280;48704;50.534;6.442;2023-04-25T07:58:25;95121.25;;;2.95;100.00
62634;BME280;48704;50.534;6.442;2023-04-25T08:00:50;95119.47;;;3.14;100.00
62634;BME280;48704;50.534;6.442;2023-04-25T08:03:15;95125.84;;;2.98;100.00
62634;BME280;48704;50.534;6.442;2023-04-25T08:05:41;95129.28;;;3.02;100.00
62634;BME280;48704;50.534;6.442;2023-04-25T08:08:06;95120.13;;;3.05;100.00
62634;BME280;48704;50.534;6.442;2023-04-25T08:10:32;95128.31;;;3.34;100.00
62634;BME280;48704;50.534;6.442;2023-04-25T08:12:58;95137.09;;;2.91;100.00
62634;BME280;48704;50.534;6.442;2023-04-25T08:15:23;95144.78;;;3.47;100.00
62634;BME280;48704;50.534;6.442;2023-04-25T08:17:49;95140.94;;;3.57;100.00
62634;BME280;48704;50.534;6.442;2023-04-25T08:20:14;95156.75;;;3.78;100.00
62634;BME280;48704;50.534;6.442;2023-04-25T08:22:39;95161.47;;;4.03;100.00
62634;BME280;48704;50.534;6.442;2023-04-25T08:25:05;95170.63;;;3.87;100.00
62634;BME280;48704;50.534;6.442;2023-04-25T08:27:30;95164.94;;;3.69;100.00
62634;BME280;48704;50.534;6.442;2023-04-25T08:29:56;95159.63;;;4.22;100.00
62634;BME280;48704;50.534;6.442;2023-04-25T08:32:21;95164.38;;;4.21;100.00
62634;BME280;48704;50.534;6.442;2023-04-25T08:34:46;95175.56;;;4.05;100.00
62634;BME280;48704;50.534;6.442;2023-04-25T08:37:12;95173.28;;;4.25;100.00
62634;BME280;48704;50.534;6.442;2023-04-25T08:39:37;95179.66;;;4.00;100.00
62634;BME280;48704;50.534;6.442;2023-04-25T08:42:06;95183.13;;;4.14;100.00
62634;BME280;48704;50.534;6.442;2023-04-25T08:44:34;95179.34;;;4.33;100.00
62634;BME280;48704;50.534;6.442;2023-04-25T08:47:02;95190.50;;;4.51;100.00
62634;BME280;48704;50.534;6.442;2023-04-25T08:49:29;95191.63;;;4.19;100.00
62634;BME280;48704;50.534;6.442;2023-04-25T08:52:01;95194.81;;;4.18;100.00
62634;BME280;48704;50.534;6.442;2023-04-25T08:54:27;95201.94;;;3.93;100.00
62634;BME280;48704;50.534;6.442;2023-04-25T08:56:54;95198.41;;;4.06;100.00
62634;BME280;48704;50.534;6.442;2023-04-25T08:59:22;95199.09;;;3.84;100.00
62634;BME280;48704;50.534;6.442;2023-04-25T09:01:49;95205.59;;;3.90;100.00
62634;BME280;48704;50.534;6.442;2023-04-25T09:04:14;95210.88;;;3.97;100.00
62634;BME280;48704;50.534;6.442;2023-04-25T09:06:40;95216.94;;;3.92;100.00
62634;BME280;48704;50.534;6.442;2023-04-25T09:09:06;95228.41;;;3.78;100.00
62634;BME280;48704;50.534;6.442;2023-04-25T09:11:34;95225.56;;;3.44;100.00
62634;BME280;48704;50.534;6.442;2023-04-25T09:14:11;95228.94;;;3.98;100.00
62634;BME280;48704;50.534;6.442;2023-04-25T09:17:01;95240.31;;;4.00;100.00
62634;BME280;48704;50.534;6.442;2023-04-25T09:19:32;95240.78;;;3.61;100.00
62634;BME280;48704;50.534;6.442;2023-04-25T09:22:02;95244.97;;;3.53;100.00
62634;BME280;48704;50.534;6.442;2023-04-25T09:24:44;95238.66;;;3.78;100.00
62634;BME280;48704;50.534;6.442;2023-04-25T09:27:12;95243.63;;;3.45;100.00
62634;BME280;48704;50.534;6.442;2023-04-25T09:29:39;95255.31;;;3.99;100.00
62634;BME280;48704;50.534;6.442;2023-04-25T09:32:19;95252.41;;;4.85;100.00
62634;BME280;48704;50.534;6.442;2023-04-25T09:34:50;95262.97;;;4.64;100.00
62634;BME280;48704;50.534;6.442;2023-04-25T09:37:24;95249.50;;;4.88;100.00
62634;BME280;48704;50.534;6.442;2023-04-25T09:39:52;95261.38;;;5.42;100.00
62634;BME280;48704;50.534;6.442;2023-04-25T09:42:22;95267.31;;;5.62;100.00
62634;BME280;48704;50.534;6.442;2023-04-25T09:44:48;95253.69;;;4.93;100.00
62634;BME280;48704;50.534;6.442;2023-04-25T09:47:16;95264.19;;;5.51;100.00
62634;BME280;48704;50.534;6.442;2023-04-25T09:49:43;95268.84;;;5.10;100.00
62634;BME280;48704;50.534;6.442;2023-04-25T09:52:13;95261.69;;;5.22;100.00
62634;BME280;48704;50.534;6.442;2023-04-25T09:54:39;95268.69;;;5.35;100.00
62634;BME280;48704;50.534;6.442;2023-04-25T09:57:10;95266.97;;;5.51;100.00
62634;BME280;48704;50.534;6.442;2023-04-25T09:59:38;95269.41;;;6.20;100.00
62634;BME280;48704;50.534;6.442;2023-04-25T10:02:05;95266.31;;;5.78;100.00
62634;BME280;48704;50.534;6.442;2023-04-25T10:04:34;95273.97;;;5.21;100.00
62634;BME280;48704;50.534;6.442;2023-04-25T10:07:00;95273.72;;;5.06;100.00
62634;BME280;48704;50.534;6.442;2023-04-25T10:09:28;95282.66;;;5.63;100.00
62634;BME280;48704;50.534;6.442;2023-04-25T10:11:57;95275.72;;;5.58;100.00
62634;BME280;48704;50.534;6.442;2023-04-25T10:14:23;95280.78;;;5.51;100.00
62634;BME280;48704;50.534;6.442;2023-04-25T10:16:49;95280.31;;;4.87;100.00
62634;BME280;48704;50.534;6.442;2023-04-25T10:19:19;95285.63;;;4.59;100.00
62634;BME280;48704;50.534;6.442;2023-04-25T10:22:08;95280.28;;;4.43;100.00
62634;BME280;48704;50.534;6.442;2023-04-25T10:24:36;95292.41;;;4.33;100.00
62634;BME280;48704;50.534;6.442;2023-04-25T10:27:02;95287.34;;;4.44;100.00
62634;BME280;48704;50.534;6.442;2023-04-25T10:29:27;95292.75;;;4.22;100.00
62634;BME280;48704;50.534;6.442;2023-04-25T10:31:53;95296.72;;;4.34;100.00
62634;BME280;48704;50.534;6.442;2023-04-25T10:34:19;95296.00;;;4.55;100.00
62634;BME280;48704;50.534;6.442;2023-04-25T10:36:50;95290.97;;;4.41;100.00
62634;BME280;48704;50.534;6.442;2023-04-25T10:39:26;95298.44;;;4.53;100.00
62634;BME280;48704;50.534;6.442;2023-04-25T10:41:55;95289.78;;;4.77;100.00
62634;BME280;48704;50.534;6.442;2023-04-25T10:44:21;95307.53;;;4.41;100.00
62634;BME280;48704;50.534;6.442;2023-04-25T10:46:46;95292.47;;;4.89;100.00
62634;BME280;48704;50.534;6.442;2023-04-25T10:49:29;95289.91;;;4.60;100.00
62634;BME280;48704;50.534;6.442;2023-04-25T10:54:52;95294.22;;;5.18;100.00
62634;BME280;48704;50.534;6.442;2023-04-25T10:57:28;95291.91;;;5.38;100.00
62634;BME280;48704;50.534;6.442;2023-04-25T11:00:01;95300.06;;;5.42;100.00
62634;BME280;48704;50.534;6.442;2023-04-25T11:02:30;95296.53;;;4.97;100.00
62634;BME280;48704;50.534;6.442;2023-04-25T11:04:55;95306.97;;;4.81;100.00
62634;BME280;48704;50.534;6.442;2023-04-25T11:10:08;95301.69;;;4.74;100.00
62634;BME280;48704;50.534;6.442;2023-04-25T11:12:33;95306.38;;;4.51;100.00
62634;BME280;48704;50.534;6.442;2023-04-25T11:15:04;95303.25;;;4.75;100.00
62634;BME280;48704;50.534;6.442;2023-04-25T11:17:30;95317.16;;;4.24;100.00
62634;BME280;48704;50.534;6.442;2023-04-25T11:19:55;95316.34;;;4.36;100.00
62634;BME280;48704;50.534;6.442;2023-04-25T11:22:22;95320.34;;;4.35;100.00
62634;BME280;48704;50.534;6.442;2023-04-25T11:24:47;95319.25;;;4.20;100.00
62634;BME280;48704;50.534;6.442;2023-04-25T11:27:12;95305.22;;;4.40;100.00
62634;BME280;48704;50.534;6.442;2023-04-25T11:29:38;95308.44;;;4.73;100.00
62634;BME280;48704;50.534;6.442;2023-04-25T11:32:03;95309.69;;;4.93;100.00
62634;BME280;48704;50.534;6.442;2023-04-25T11:34:30;95298.66;;;5.15;100.00
62634;BME280;48704;50.534;6.442;2023-04-25T11:36:56;95301.91;;;5.97;100.00
62634;BME280;48704;50.534;6.442;2023-04-25T11:39:24;95305.03;;;6.09;100.00
62634;BME280;48704;50.534;6.442;2023-04-25T11:41:50;95306.13;;;6.88;97.04
62634;BME280;48704;50.534;6.442;2023-04-25T11:44:16;95305.69;;;7.86;93.25
62634;BME280;48704;50.534;6.442;2023-04-25T11:46:42;95302.31;;;7.91;90.40
62634;BME280;48704;50.534;6.442;2023-04-25T11:49:08;95298.44;;;8.31;87.45
62634;BME280;48704;50.534;6.442;2023-04-25T11:51:40;95297.41;;;8.85;90.31
62634;BME280;48704;50.534;6.442;2023-04-25T11:54:06;95300.28;;;9.29;78.74
62634;BME280;48704;50.534;6.442;2023-04-25T11:56:31;95303.31;;;9.99;84.20
62634;BME280;48704;50.534;6.442;2023-04-25T11:59:05;95306.88;;;9.85;78.56
62634;BME280;48704;50.534;6.442;2023-04-25T12:01:33;95305.47;;;9.36;76.07
62634;BME280;48704;50.534;6.442;2023-04-25T12:04:10;95301.69;;;9.10;79.50
62634;BME280;48704;50.534;6.442;2023-04-25T12:06:40;95302.00;;;8.88;76.57
62634;BME280;48704;50.534;6.442;2023-04-25T12:09:08;95303.34;;;8.93;83.33
62634;BME280;48704;50.534;6.442;2023-04-25T12:11:53;95293.56;;;8.83;79.21
62634;BME280;48704;50.534;6.442;2023-04-25T12:14:26;95301.75;;;7.69;82.85
62634;BME280;48704;50.534;6.442;2023-04-25T12:16:57;95302.63;;;7.84;92.64
62634;BME280;48704;50.534;6.442;2023-04-25T12:19:23;95304.69;;;6.47;92.31
62634;BME280;48704;50.534;6.442;2023-04-25T12:21:49;95308.44;;;6.13;100.00
62634;BME280;48704;50.534;6.442;2023-04-25T12:24:17;95307.09;;;6.35;100.00
62634;BME280;48704;50.534;6.442;2023-04-25T12:26:54;95317.16;;;5.80;100.00
62634;BME280;48704;50.534;6.442;2023-04-25T12:29:24;95309.91;;;5.74;100.00
62634;BME280;48704;50.534;6.442;2023-04-25T12:31:51;95321.41;;;5.19;100.00
62634;BME280;48704;50.534;6.442;2023-04-25T12:34:21;95325.38;;;5.18;100.00
62634;BME280;48704;50.534;6.442;2023-04-25T12:36:47;95327.50;;;5.14;100.00
62634;BME280;48704;50.534;6.442;2023-04-25T12:39:17;95336.81;;;5.29;100.00
62634;BME280;48704;50.534;6.442;2023-04-25T12:41:43;95333.34;;;5.16;100.00
62634;BME280;48704;50.534;6.442;2023-04-25T12:44:09;95341.03;;;5.21;100.00
62634;BME280;48704;50.534;6.442;2023-04-25T12:46:35;95346.91;;;4.89;100.00
62634;BME280;48704;50.534;6.442;2023-04-25T12:49:00;95348.94;;;4.76;100.00
62634;BME280;48704;50.534;6.442;2023-04-25T12:51:26;95356.19;;;4.22;100.00
62634;BME280;48704;50.534;6.442;2023-04-25T12:53:53;95361.03;;;4.18;100.00
62634;BME280;48704;50.534;6.442;2023-04-25T12:56:18;95364.44;;;3.84;100.00
62634;BME280;48704;50.534;6.442;2023-04-25T12:58:43;95366.63;;;3.64;100.00
62634;BME280;48704;50.534;6.442;2023-04-25T13:01:09;95367.53;;;3.86;100.00
62634;BME280;48704;50.534;6.442;2023-04-25T13:03:34;95369.22;;;3.96;100.00